sensor_id;sensor_type;location;lat;lon;timestamp;P1;durP1;ratioP1;P2;durP2;ratioP2
69951;SDS011;60406;48.408;13.392;2022-09-09T00:09:32;31.63;;;22.73;;
69951;SDS011;60406;48.408;13.392;2022-09-09T00:20:19;26.70;;;21.35;;
69951;SDS011;60406;48.408;13.392;2022-09-09T00:25:24;36.35;;;24.40;;
69951;SDS011;60406;48.408;13.392;2022-09-09T00:30:34;34.72;;;24.80;;
69951;SDS011;60406;48.408;13.392;2022-09-09T00:35:36;37.80;;;23.30;;
69951;SDS011;60406;48.408;13.392;2022-09-09T00:40:41;34.63;;;24.65;;
69951;SDS011;60406;48.408;13.392;2022-09-09T00:45:56;33.13;;;23.15;;
69951;SDS011;60406;48.408;13.392;2022-09-09T00:51:52;33.92;;;23.65;;
69951;SDS011;60406;48.408;13.392;2022-09-09T01:02:47;29.95;;;21.50;;
69951;SDS011;60406;48.408;13.392;2022-09-09T01:07:53;43.55;;;26.52;;
69951;SDS011;60406;48.408;13.392;2022-09-09T01:12:54;47.88;;;26.42;;
69951;SDS011;60406;48.408;13.392;2022-09-09T01:18:15;63.28;;;30.25;;
69951;SDS011;60406;48.408;13.392;2022-09-09T01:28:47;43.70;;;25.77;;
69951;SDS011;60406;48.408;13.392;2022-09-09T01:33:49;46.72;;;26.10;;
69951;SDS011;60406;48.408;13.392;2022-09-09T01:38:50;43.55;;;25.20;;
69951;SDS011;60406;48.408;13.392;2022-09-09T01:43:52;44.42;;;24.27;;
69951;SDS011;60406;48.408;13.392;2022-09-09T01:48:53;57.55;;;28.88;;
69951;SDS011;60406;48.408;13.392;2022-09-09T01:53:55;52.05;;;29.23;;
69951;SDS011;60406;48.408;13.392;2022-09-09T02:05:00;50.35;;;26.55;;
69951;SDS011;60406;48.408;13.392;2022-09-09T02:09:40;44.30;;;25.30;;
69951;SDS011;60406;48.408;13.392;2022-09-09T02:14:42;16.48;;;13.68;;
69951;SDS011;60406;48.408;13.392;2022-09-09T02:19:49;19.25;;;14.27;;
69951;SDS011;60406;48.408;13.392;2022-09-09T02:24:56;29.48;;;17.83;;
69951;SDS011;60406;48.408;13.392;2022-09-09T02:29:58;28.52;;;19.63;;
69951;SDS011;60406;48.408;13.392;2022-09-09T02:35:02;46.55;;;25.20;;
69951;SDS011;60406;48.408;13.392;2022-09-09T02:40:06;49.88;;;26.13;;
69951;SDS011;60406;48.408;13.392;2022-09-09T02:45:09;53.10;;;27.45;;
69951;SDS011;60406;48.408;13.392;2022-09-09T02:50:19;60.60;;;29.02;;
69951;SDS011;60406;48.408;13.392;2022-09-09T02:55:27;42.08;;;22.00;;
69951;SDS011;60406;48.408;13.392;2022-09-09T03:00:34;43.17;;;21.23;;
69951;SDS011;60406;48.408;13.392;2022-09-09T03:05:34;66.05;;;29.40;;
69951;SDS011;60406;48.408;13.392;2022-09-09T03:10:36;330.35;;;42.28;;
69951;SDS011;60406;48.408;13.392;2022-09-09T03:15:36;312.70;;;39.53;;
69951;SDS011;60406;48.408;13.392;2022-09-09T03:20:37;383.60;;;42.22;;
69951;SDS011;60406;48.408;13.392;2022-09-09T03:25:38;469.33;;;51.75;;
69951;SDS011;60406;48.408;13.392;2022-09-09T03:30:39;381.33;;;46.65;;
69951;SDS011;60406;48.408;13.392;2022-09-09T03:35:44;314.20;;;42.47;;
69951;SDS011;60406;48.408;13.392;2022-09-09T03:40:49;339.15;;;41.42;;
69951;SDS011;60406;48.408;13.392;2022-09-09T03:45:51;240.57;;;39.85;;
69951;SDS011;60406;48.408;13.392;2022-09-09T03:50:52;281.52;;;42.67;;
69951;SDS011;60406;48.408;13.392;2022-09-09T03:55:55;226.75;;;36.67;;
69951;SDS011;60406;48.408;13.392;2022-09-09T04:00:57;93.07;;;28.85;;
69951;SDS011;60406;48.408;13.392;2022-09-09T04:06:10;84.05;;;31.77;;
69951;SDS011;60406;48.408;13.392;2022-09-09T04:11:11;46.90;;;29.00;;
69951;SDS011;60406;48.408;13.392;2022-09-09T04:16:12;142.43;;;37.63;;
69951;SDS011;60406;48.408;13.392;2022-09-09T04:21:13;429.20;;;46.67;;
69951;SDS011;60406;48.408;13.392;2022-09-09T04:26:14;386.17;;;48.50;;
69951;SDS011;60406;48.408;13.392;2022-09-09T04:31:16;349.70;;;46.13;;
69951;SDS011;60406;48.408;13.392;2022-09-09T04:36:19;209.13;;;36.60;;
69951;SDS011;60406;48.408;13.392;2022-09-09T04:41:19;237.82;;;37.08;;
69951;SDS011;60406;48.408;13.392;2022-09-09T04:46:21;326.48;;;40.55;;
69951;SDS011;60406;48.408;13.392;2022-09-09T04:51:22;171.93;;;34.83;;
69951;SDS011;60406;48.408;13.392;2022-09-09T04:56:23;203.45;;;33.30;;
69951;SDS011;60406;48.408;13.392;2022-09-09T05:01:24;71.97;;;31.45;;
69951;SDS011;60406;48.408;13.392;2022-09-09T05:06:25;47.70;;;28.65;;
69951;SDS011;60406;48.408;13.392;2022-09-09T05:11:27;43.13;;;27.38;;
69951;SDS011;60406;48.408;13.392;2022-09-09T05:16:29;33.55;;;27.10;;
69951;SDS011;60406;48.408;13.392;2022-09-09T05:21:30;27.85;;;21.95;;
69951;SDS011;60406;48.408;13.392;2022-09-09T05:26:31;30.95;;;22.60;;
69951;SDS011;60406;48.408;13.392;2022-09-09T05:31:32;26.63;;;20.70;;
69951;SDS011;60406;48.408;13.392;2022-09-09T05:36:32;25.58;;;19.45;;
69951;SDS011;60406;48.408;13.392;2022-09-09T05:41:33;21.63;;;17.00;;
69951;SDS011;60406;48.408;13.392;2022-09-09T05:46:34;25.60;;;18.67;;
69951;SDS011;60406;48.408;13.392;2022-09-09T05:51:35;25.98;;;18.13;;
69951;SDS011;60406;48.408;13.392;2022-09-09T05:56:36;19.02;;;16.02;;
69951;SDS011;60406;48.408;13.392;2022-09-09T06:01:37;20.00;;;16.73;;
69951;SDS011;60406;48.408;13.392;2022-09-09T06:06:38;19.42;;;15.38;;
69951;SDS011;60406;48.408;13.392;2022-09-09T06:11:39;18.15;;;15.02;;
69951;SDS011;60406;48.408;13.392;2022-09-09T06:16:40;17.55;;;15.73;;
69951;SDS011;60406;48.408;13.392;2022-09-09T06:21:41;21.58;;;17.98;;
69951;SDS011;60406;48.408;13.392;2022-09-09T06:26:41;27.23;;;20.77;;
69951;SDS011;60406;48.408;13.392;2022-09-09T06:31:42;27.27;;;20.92;;
69951;SDS011;60406;48.408;13.392;2022-09-09T06:36:43;30.75;;;21.73;;
69951;SDS011;60406;48.408;13.392;2022-09-09T06:41:44;28.40;;;20.60;;
69951;SDS011;60406;48.408;13.392;2022-09-09T06:46:45;25.98;;;19.25;;
69951;SDS011;60406;48.408;13.392;2022-09-09T06:51:46;23.98;;;17.85;;
69951;SDS011;60406;48.408;13.392;2022-09-09T06:56:47;20.80;;;16.85;;
69951;SDS011;60406;48.408;13.392;2022-09-09T07:01:48;19.95;;;16.00;;
69951;SDS011;60406;48.408;13.392;2022-09-09T07:06:49;20.98;;;16.98;;
69951;SDS011;60406;48.408;13.392;2022-09-09T07:11:50;20.13;;;16.25;;
69951;SDS011;60406;48.408;13.392;2022-09-09T07:16:52;18.52;;;14.32;;
69951;SDS011;60406;48.408;13.392;2022-09-09T07:21:52;25.00;;;14.38;;
69951;SDS011;60406;48.408;13.392;2022-09-09T07:26:53;17.70;;;14.57;;
69951;SDS011;60406;48.408;13.392;2022-09-09T07:31:54;16.00;;;12.68;;
69951;SDS011;60406;48.408;13.392;2022-09-09T07:36:55;17.98;;;14.82;;
69951;SDS011;60406;48.408;13.392;2022-09-09T07:41:56;17.40;;;13.45;;
69951;SDS011;60406;48.408;13.392;2022-09-09T07:46:57;20.17;;;15.43;;
69951;SDS011;60406;48.408;13.392;2022-09-09T07:51:58;19.00;;;14.48;;
69951;SDS011;60406;48.408;13.392;2022-09-09T07:56:59;18.00;;;13.93;;
69951;SDS011;60406;48.408;13.392;2022-09-09T08:01:59;16.02;;;13.93;;
69951;SDS011;60406;48.408;13.392;2022-09-09T08:07:01;19.60;;;13.75;;
69951;SDS011;60406;48.408;13.392;2022-09-09T08:12:02;22.20;;;14.45;;
69951;SDS011;60406;48.408;13.392;2022-09-09T08:17:03;15.57;;;12.63;;
69951;SDS011;60406;48.408;13.392;2022-09-09T08:22:04;13.75;;;12.25;;
69951;SDS011;60406;48.408;13.392;2022-09-09T08:27:04;15.63;;;11.85;;
69951;SDS011;60406;48.408;13.392;2022-09-09T08:32:05;13.98;;;10.68;;
69951;SDS011;60406;48.408;13.392;2022-09-09T08:37:06;13.93;;;12.38;;
69951;SDS011;60406;48.408;13.392;2022-09-09T08:42:18;14.45;;;11.88;;
69951;SDS011;60406;48.408;13.392;2022-09-09T08:52:55;15.30;;;12.27;;
69951;SDS011;60406;48.408;13.392;2022-09-09T08:57:58;17.48;;;13.82;;
69951;SDS011;60406;48.408;13.392;2022-09-09T09:08:26;14.23;;;12.50;;
69951;SDS011;60406;48.408;13.392;2022-09-09T09:13:34;14.57;;;13.02;;
69951;SDS011;60406;48.408;13.392;2022-09-09T09:18:43;16.17;;;12.63;;
69951;SDS011;60406;48.408;13.392;2022-09-09T09:24:02;18.35;;;13.38;;
69951;SDS011;60406;48.408;13.392;2022-09-09T09:29:24;16.00;;;13.02;;
69951;SDS011;60406;48.408;13.392;2022-09-09T09:34:25;16.17;;;12.90;;
69951;SDS011;60406;48.408;13.392;2022-09-09T09:39:27;17.58;;;14.63;;
69951;SDS011;60406;48.408;13.392;2022-09-09T09:44:30;19.83;;;13.35;;
69951;SDS011;60406;48.408;13.392;2022-09-09T09:49:32;16.38;;;12.25;;
69951;SDS011;60406;48.408;13.392;2022-09-09T09:54:33;15.38;;;11.63;;
69951;SDS011;60406;48.408;13.392;2022-09-09T09:59:38;18.05;;;11.95;;
69951;SDS011;60406;48.408;13.392;2022-09-09T10:04:39;15.57;;;11.35;;
69951;SDS011;60406;48.408;13.392;2022-09-09T10:09:40;11.82;;;10.18;;
69951;SDS011;60406;48.408;13.392;2022-09-09T10:19:42;13.98;;;10.82;;
69951;SDS011;60406;48.408;13.392;2022-09-09T10:30:17;13.25;;;10.15;;
69951;SDS011;60406;48.408;13.392;2022-09-09T10:51:22;14.98;;;12.38;;
69951;SDS011;60406;48.408;13.392;2022-09-09T10:56:33;21.65;;;16.75;;
69951;SDS011;60406;48.408;13.392;2022-09-09T11:01:42;16.05;;;13.70;;
69951;SDS011;60406;48.408;13.392;2022-09-09T11:06:46;16.58;;;13.82;;
69951;SDS011;60406;48.408;13.392;2022-09-09T11:16:55;21.25;;;15.10;;
69951;SDS011;60406;48.408;13.392;2022-09-09T11:21:58;17.75;;;12.82;;
69951;SDS011;60406;48.408;13.392;2022-09-09T11:27:01;19.23;;;13.20;;
69951;SDS011;60406;48.408;13.392;2022-09-09T11:43:28;15.48;;;13.23;;
69951;SDS011;60406;48.408;13.392;2022-09-09T11:49:23;18.77;;;13.60;;
69951;SDS011;60406;48.408;13.392;2022-09-09T11:54:00;18.77;;;13.65;;
69951;SDS011;60406;48.408;13.392;2022-09-09T11:59:20;17.67;;;13.57;;
69951;SDS011;60406;48.408;13.392;2022-09-09T12:09:26;15.93;;;12.73;;
69951;SDS011;60406;48.408;13.392;2022-09-09T12:31:14;15.80;;;11.30;;
69951;SDS011;60406;48.408;13.392;2022-09-09T12:36:27;17.23;;;13.13;;
69951;SDS011;60406;48.408;13.392;2022-09-09T12:41:30;15.90;;;12.45;;
69951;SDS011;60406;48.408;13.392;2022-09-09T12:46:41;18.10;;;11.90;;
69951;SDS011;60406;48.408;13.392;2022-09-09T12:51:43;14.95;;;11.68;;
69951;SDS011;60406;48.408;13.392;2022-09-09T12:56:45;15.43;;;11.82;;
69951;SDS011;60406;48.408;13.392;2022-09-09T13:01:54;16.40;;;11.60;;
69951;SDS011;60406;48.408;13.392;2022-09-09T13:07:05;12.75;;;10.15;;
69951;SDS011;60406;48.408;13.392;2022-09-09T13:12:09;14.55;;;11.02;;
69951;SDS011;60406;48.408;13.392;2022-09-09T13:17:32;13.70;;;11.85;;
69951;SDS011;60406;48.408;13.392;2022-09-09T13:22:36;12.55;;;11.25;;
69951;SDS011;60406;48.408;13.392;2022-09-09T13:27:38;12.30;;;10.85;;
69951;SDS011;60406;48.408;13.392;2022-09-09T13:32:40;13.82;;;10.32;;
69951;SDS011;60406;48.408;13.392;2022-09-09T13:37:41;10.10;;;7.43;;
69951;SDS011;60406;48.408;13.392;2022-09-09T13:42:42;7.13;;;6.43;;
69951;SDS011;60406;48.408;13.392;2022-09-09T13:47:43;7.43;;;6.63;;
69951;SDS011;60406;48.408;13.392;2022-09-09T13:52:43;6.47;;;5.88;;
69951;SDS011;60406;48.408;13.392;2022-09-09T13:57:51;9.80;;;5.63;;
69951;SDS011;60406;48.408;13.392;2022-09-09T14:02:52;7.55;;;6.10;;
69951;SDS011;60406;48.408;13.392;2022-09-09T14:07:53;6.63;;;5.60;;
69951;SDS011;60406;48.408;13.392;2022-09-09T14:12:54;5.57;;;5.07;;
69951;SDS011;60406;48.408;13.392;2022-09-09T14:17:55;9.43;;;4.90;;
69951;SDS011;60406;48.408;13.392;2022-09-09T14:22:56;4.93;;;4.15;;
69951;SDS011;60406;48.408;13.392;2022-09-09T14:27:57;6.80;;;4.15;;
69951;SDS011;60406;48.408;13.392;2022-09-09T14:32:58;4.50;;;4.10;;
69951;SDS011;60406;48.408;13.392;2022-09-09T14:37:59;6.05;;;3.33;;
69951;SDS011;60406;48.408;13.392;2022-09-09T14:42:59;4.47;;;3.92;;
69951;SDS011;60406;48.408;13.392;2022-09-09T14:48:00;6.10;;;3.80;;
69951;SDS011;60406;48.408;13.392;2022-09-09T14:53:01;4.90;;;3.67;;
69951;SDS011;60406;48.408;13.392;2022-09-09T14:58:03;5.75;;;3.33;;
69951;SDS011;60406;48.408;13.392;2022-09-09T15:03:04;3.60;;;2.63;;
69951;SDS011;60406;48.408;13.392;2022-09-09T15:08:05;3.17;;;2.45;;
69951;SDS011;60406;48.408;13.392;2022-09-09T15:13:05;5.05;;;2.30;;
69951;SDS011;60406;48.408;13.392;2022-09-09T15:18:06;2.92;;;2.20;;
69951;SDS011;60406;48.408;13.392;2022-09-09T15:23:07;5.90;;;2.80;;
69951;SDS011;60406;48.408;13.392;2022-09-09T15:28:08;5.30;;;2.90;;
69951;SDS011;60406;48.408;13.392;2022-09-09T15:33:09;6.78;;;3.72;;
69951;SDS011;60406;48.408;13.392;2022-09-09T15:38:10;4.65;;;3.22;;
69951;SDS011;60406;48.408;13.392;2022-09-09T15:43:11;6.22;;;3.10;;
69951;SDS011;60406;48.408;13.392;2022-09-09T15:48:12;5.80;;;2.95;;
69951;SDS011;60406;48.408;13.392;2022-09-09T15:53:13;7.13;;;2.72;;
69951;SDS011;60406;48.408;13.392;2022-09-09T15:58:14;6.28;;;3.53;;
69951;SDS011;60406;48.408;13.392;2022-09-09T16:03:15;4.18;;;2.78;;
69951;SDS011;60406;48.408;13.392;2022-09-09T16:08:16;3.28;;;2.92;;
69951;SDS011;60406;48.408;13.392;2022-09-09T16:13:16;5.90;;;2.70;;
69951;SDS011;60406;48.408;13.392;2022-09-09T16:18:17;9.27;;;3.00;;
69951;SDS011;60406;48.408;13.392;2022-09-09T16:23:18;4.07;;;2.42;;
69951;SDS011;60406;48.408;13.392;2022-09-09T16:28:19;6.43;;;2.80;;
69951;SDS011;60406;48.408;13.392;2022-09-09T16:33:20;3.92;;;2.90;;
69951;SDS011;60406;48.408;13.392;2022-09-09T16:38:21;4.50;;;2.00;;
69951;SDS011;60406;48.408;13.392;2022-09-09T16:43:22;3.65;;;2.15;;
69951;SDS011;60406;48.408;13.392;2022-09-09T16:48:23;3.05;;;2.17;;
69951;SDS011;60406;48.408;13.392;2022-09-09T16:53:24;3.58;;;2.03;;
69951;SDS011;60406;48.408;13.392;2022-09-09T16:58:24;5.80;;;1.90;;
69951;SDS011;60406;48.408;13.392;2022-09-09T17:03:25;6.93;;;4.50;;
69951;SDS011;60406;48.408;13.392;2022-09-09T17:08:26;5.80;;;2.80;;
69951;SDS011;60406;48.408;13.392;2022-09-09T17:13:27;7.50;;;3.40;;
69951;SDS011;60406;48.408;13.392;2022-09-09T17:18:28;9.85;;;4.57;;
69951;SDS011;60406;48.408;13.392;2022-09-09T17:23:29;8.07;;;5.38;;
69951;SDS011;60406;48.408;13.392;2022-09-09T17:28:30;7.38;;;5.20;;
69951;SDS011;60406;48.408;13.392;2022-09-09T17:33:31;10.52;;;5.88;;
69951;SDS011;60406;48.408;13.392;2022-09-09T17:38:32;9.43;;;5.18;;
69951;SDS011;60406;48.408;13.392;2022-09-09T17:43:33;8.85;;;5.13;;
69951;SDS011;60406;48.408;13.392;2022-09-09T17:48:34;17.95;;;6.15;;
69951;SDS011;60406;48.408;13.392;2022-09-09T17:53:39;5.55;;;4.32;;
69951;SDS011;60406;48.408;13.392;2022-09-09T17:58:41;6.18;;;3.05;;
69951;SDS011;60406;48.408;13.392;2022-09-09T18:03:43;5.15;;;3.28;;
69951;SDS011;60406;48.408;13.392;2022-09-09T18:08:52;5.57;;;2.97;;
69951;SDS011;60406;48.408;13.392;2022-09-09T18:13:55;2.95;;;2.65;;
69951;SDS011;60406;48.408;13.392;2022-09-09T18:18:57;3.88;;;2.42;;
69951;SDS011;60406;48.408;13.392;2022-09-09T18:23:59;8.70;;;2.20;;
69951;SDS011;60406;48.408;13.392;2022-09-09T18:29:02;7.38;;;2.40;;
69951;SDS011;60406;48.408;13.392;2022-09-09T18:39:06;4.85;;;2.30;;
69951;SDS011;60406;48.408;13.392;2022-09-09T18:44:15;6.07;;;2.20;;
69951;SDS011;60406;48.408;13.392;2022-09-09T18:49:18;4.05;;;2.50;;
69951;SDS011;60406;48.408;13.392;2022-09-09T18:54:21;5.22;;;2.65;;
69951;SDS011;60406;48.408;13.392;2022-09-09T18:59:23;5.07;;;2.80;;
69951;SDS011;60406;48.408;13.392;2022-09-09T19:04:24;4.88;;;2.10;;
69951;SDS011;60406;48.408;13.392;2022-09-09T19:09:26;7.43;;;6.10;;
69951;SDS011;60406;48.408;13.392;2022-09-09T19:14:28;3.72;;;2.53;;
69951;SDS011;60406;48.408;13.392;2022-09-09T19:19:30;7.15;;;2.85;;
69951;SDS011;60406;48.408;13.392;2022-09-09T19:24:32;7.28;;;6.07;;
69951;SDS011;60406;48.408;13.392;2022-09-09T19:29:34;9.18;;;4.75;;
69951;SDS011;60406;48.408;13.392;2022-09-09T19:34:35;4.72;;;4.22;;
69951;SDS011;60406;48.408;13.392;2022-09-09T19:39:36;3.75;;;2.80;;
69951;SDS011;60406;48.408;13.392;2022-09-09T19:44:37;2.83;;;2.25;;
69951;SDS011;60406;48.408;13.392;2022-09-09T19:49:38;4.75;;;3.05;;
69951;SDS011;60406;48.408;13.392;2022-09-09T19:54:39;12.50;;;3.75;;
69951;SDS011;60406;48.408;13.392;2022-09-09T19:59:40;8.57;;;3.00;;
69951;SDS011;60406;48.408;13.392;2022-09-09T20:04:41;5.68;;;4.00;;
69951;SDS011;60406;48.408;13.392;2022-09-09T20:09:41;7.13;;;4.68;;
69951;SDS011;60406;48.408;13.392;2022-09-09T20:14:42;6.82;;;3.90;;
69951;SDS011;60406;48.408;13.392;2022-09-09T20:19:43;11.45;;;3.70;;
69951;SDS011;60406;48.408;13.392;2022-09-09T20:24:44;4.50;;;4.10;;
69951;SDS011;60406;48.408;13.392;2022-09-09T20:29:45;6.82;;;4.68;;
69951;SDS011;60406;48.408;13.392;2022-09-09T20:34:46;8.68;;;4.28;;
69951;SDS011;60406;48.408;13.392;2022-09-09T20:39:47;7.22;;;4.40;;
69951;SDS011;60406;48.408;13.392;2022-09-09T20:44:48;6.30;;;4.18;;
69951;SDS011;60406;48.408;13.392;2022-09-09T20:49:48;10.82;;;4.60;;
69951;SDS011;60406;48.408;13.392;2022-09-09T20:54:49;5.32;;;4.63;;
69951;SDS011;60406;48.408;13.392;2022-09-09T20:59:50;6.80;;;4.70;;
69951;SDS011;60406;48.408;13.392;2022-09-09T21:04:51;5.85;;;4.32;;
69951;SDS011;60406;48.408;13.392;2022-09-09T21:09:52;7.10;;;3.80;;
69951;SDS011;60406;48.408;13.392;2022-09-09T21:14:53;4.28;;;3.88;;
69951;SDS011;60406;48.408;13.392;2022-09-09T21:19:54;5.70;;;4.25;;
69951;SDS011;60406;48.408;13.392;2022-09-09T21:24:55;4.75;;;3.97;;
69951;SDS011;60406;48.408;13.392;2022-09-09T21:29:55;5.22;;;3.92;;
69951;SDS011;60406;48.408;13.392;2022-09-09T21:34:56;5.57;;;5.03;;
69951;SDS011;60406;48.408;13.392;2022-09-09T21:39:57;7.75;;;3.97;;
69951;SDS011;60406;48.408;13.392;2022-09-09T21:44:58;7.00;;;4.75;;
69951;SDS011;60406;48.408;13.392;2022-09-09T21:49:59;5.65;;;3.90;;
69951;SDS011;60406;48.408;13.392;2022-09-09T21:55:00;12.98;;;4.00;;
69951;SDS011;60406;48.408;13.392;2022-09-09T22:00:02;5.65;;;4.10;;
69951;SDS011;60406;48.408;13.392;2022-09-09T22:05:05;5.03;;;4.10;;
69951;SDS011;60406;48.408;13.392;2022-09-09T22:10:07;7.60;;;4.20;;
69951;SDS011;60406;48.408;13.392;2022-09-09T22:15:08;16.63;;;4.28;;
69951;SDS011;60406;48.408;13.392;2022-09-09T22:20:09;7.38;;;4.38;;
69951;SDS011;60406;48.408;13.392;2022-09-09T22:25:10;10.02;;;4.07;;
69951;SDS011;60406;48.408;13.392;2022-09-09T22:30:11;10.30;;;4.00;;
69951;SDS011;60406;48.408;13.392;2022-09-09T22:35:12;7.72;;;4.47;;
69951;SDS011;60406;48.408;13.392;2022-09-09T22:40:13;4.57;;;3.47;;
69951;SDS011;60406;48.408;13.392;2022-09-09T22:45:13;4.78;;;4.15;;
69951;SDS011;60406;48.408;13.392;2022-09-09T22:50:14;8.10;;;3.63;;
69951;SDS011;60406;48.408;13.392;2022-09-09T22:55:15;4.65;;;3.83;;
69951;SDS011;60406;48.408;13.392;2022-09-09T23:00:16;4.70;;;4.20;;
69951;SDS011;60406;48.408;13.392;2022-09-09T23:05:17;5.65;;;4.13;;
69951;SDS011;60406;48.408;13.392;2022-09-09T23:10:18;7.65;;;3.67;;
69951;SDS011;60406;48.408;13.392;2022-09-09T23:15:19;4.60;;;2.70;;
69951;SDS011;60406;48.408;13.392;2022-09-09T23:20:20;2.97;;;2.53;;
69951;SDS011;60406;48.408;13.392;2022-09-09T23:25:21;4.82;;;1.85;;
69951;SDS011;60406;48.408;13.392;2022-09-09T23:30:22;6.00;;;2.20;;
69951;SDS011;60406;48.408;13.392;2022-09-09T23:35:23;2.50;;;1.80;;
69951;SDS011;60406;48.408;13.392;2022-09-09T23:40:23;3.47;;;1.80;;
69951;SDS011;60406;48.408;13.392;2022-09-09T23:45:24;2.63;;;2.30;;
69951;SDS011;60406;48.408;13.392;2022-09-09T23:50:25;3.88;;;1.27;;
69951;SDS011;60406;48.408;13.392;2022-09-09T23:55:26;2.65;;;1.30;;
